Bow Heron — DYTN — position and weather

sailwx.info

Track history (hours):
 
Tides and Currents Weather Stations Pressure Air Temp Water Temp Dewpoint Dewpoint Depression Visibility Wind Speed Wind Dir Waves Ship Positions

Bow Heron

Last reported at 2015-Jul-03 10:29 UTC. Time now 2015-Jul-03 10:39 UTC.
Position N 37°48' E 008°08'.

Length 174 m; draft 11.3 m.

Type: Ship (hazmat cat B). MMSI: 548779000.

Date/timePositionNaut miles runAvg speedWind from/ knotsBaromVisibWave heightAir tempDewpointWater temp
2015-Jul-03 10:29N 37°48' E 008°08'1715.0
2015-Jul-03 09:22N 37°49' E 008°29'1214.5
2015-Jul-03 08:32N 37°51' E 008°44'1514.3
2015-Jul-03 07:30N 37°52' E 009°03'2713.9
2015-Jul-03 05:33N 37°54' E 009°37'1313.5
2015-Jul-03 04:33N 37°52' E 009°54'1613.8
2015-Jul-03 03:24N 37°46' E 010°13'1213.6
2015-Jul-03 02:33N 37°42' E 010°26'1313.3
2015-Jul-03 01:33N 37°38' E 010°42'1313.2
2015-Jul-03 00:33N 37°33' E 010°57'1413.4
2015-Jul-02 23:32N 37°27' E 011°13'1913.6
2015-Jul-02 22:09N 37°18' E 011°34'1313.9
2015-Jul-02 21:11N 37°11' E 011°48'914.1
2015-Jul-02 20:32N 37°07' E 011°59'5413.6
2015-Jul-02 16:33N 36°48' E 013°02'1313.4
2015-Jul-02 15:33N 36°45' E 013°18'1313.3
2015-Jul-02 14:33N 36°41' E 013°34'1313.4
2015-Jul-02 13:34N 36°37' E 013°50'1313.2
2015-Jul-02 12:33N 36°33' E 014°05'1413.9
2015-Jul-02 11:32N 36°29' E 014°23'1313.7
2015-Jul-02 10:33N 36°25' E 014°38'1413.7
2015-Jul-02 09:33N 36°21' E 014°55'1414.2
2015-Jul-02 08:33N 36°17' E 015°11'3014.3
2015-Jul-02 06:26N 36°08' E 015°47'1214.1
2015-Jul-02 05:33N 36°04' E 016°02'1614.2
2015-Jul-02 04:24N 35°59' E 016°21'1213.9
2015-Jul-02 03:33N 35°56' E 016°36'  
Track history (hours):
 
Tides and Currents Weather Stations Pressure Air Temp Water Temp Dewpoint Dewpoint Depression Visibility Wind Speed Wind Dir Waves Ship Positions

Bow Heron

Last reported at 2015-Jul-03 10:29 UTC. Time now 2015-Jul-03 10:39 UTC.
Position N 37°48' E 008°08'.

Length 174 m; draft 11.3 m.

Type: Ship (hazmat cat B). MMSI: 548779000.

Date/timePositionNaut miles runAvg speedWind from/ knotsBaromVisibWave heightAir tempDewpointWater temp
2015-Jul-03 10:29N 37°48' E 008°08'1715.0
2015-Jul-03 09:22N 37°49' E 008°29'1214.5
2015-Jul-03 08:32N 37°51' E 008°44'1514.3
2015-Jul-03 07:30N 37°52' E 009°03'2713.9
2015-Jul-03 05:33N 37°54' E 009°37'1313.5
2015-Jul-03 04:33N 37°52' E 009°54'1613.8
2015-Jul-03 03:24N 37°46' E 010°13'1213.6
2015-Jul-03 02:33N 37°42' E 010°26'1313.3
2015-Jul-03 01:33N 37°38' E 010°42'1313.2
2015-Jul-03 00:33N 37°33' E 010°57'1413.4
2015-Jul-02 23:32N 37°27' E 011°13'1913.6
2015-Jul-02 22:09N 37°18' E 011°34'1313.9
2015-Jul-02 21:11N 37°11' E 011°48'914.1
2015-Jul-02 20:32N 37°07' E 011°59'5413.6
2015-Jul-02 16:33N 36°48' E 013°02'1313.4
2015-Jul-02 15:33N 36°45' E 013°18'1313.3
2015-Jul-02 14:33N 36°41' E 013°34'1313.4
2015-Jul-02 13:34N 36°37' E 013°50'1313.2
2015-Jul-02 12:33N 36°33' E 014°05'1413.9
2015-Jul-02 11:32N 36°29' E 014°23'1313.7
2015-Jul-02 10:33N 36°25' E 014°38'1413.7
2015-Jul-02 09:33N 36°21' E 014°55'1414.2
2015-Jul-02 08:33N 36°17' E 015°11'3014.3
2015-Jul-02 06:26N 36°08' E 015°47'1214.1
2015-Jul-02 05:33N 36°04' E 016°02'1614.2
2015-Jul-02 04:24N 35°59' E 016°21'1213.9
2015-Jul-02 03:33N 35°56' E 016°36'  

Dump ship's entire track history